Time;durP1;ratioP1;P1;durP2;ratioP2;P2;SDS_P1;SDS_P2;PMS_P1;PMS_P2;Temp;Humidity;BMP_temperature;BMP_pressure;BME280_temperature;BME280_humidity;BME280_pressure;Samples;Min_cycle;Max_cycle;Signal;HPM_P1;HPM_P2
2021/10/06 00:00:56;;;;;;;;;1.00;1.00;;;;;;;;5064409;27;51579;-58
2021/10/06 00:03:21;;;;;;;;;0.00;0.00;;;;;;;;5063606;27;53361;-58
2021/10/06 00:05:46;;;;;;;;;0.00;0.00;;;;;;;;5064546;27;51197;-58
2021/10/06 00:08:13;;;;;;;;;1.00;1.00;;;;;;;;5056874;27;51217;-58
2021/10/06 00:10:38;;;;;;;;;0.00;0.00;;;;;;;;5050363;28;51131;-58
2021/10/06 00:13:03;;;;;;;;;0.00;0.00;;;;;;;;5048909;28;51226;-58
2021/10/06 00:15:29;;;;;;;;;0.00;0.00;;;;;;;;5050985;28;52152;-58
2021/10/06 00:17:54;;;;;;;;;2.00;1.00;;;;;;;;5050627;28;53187;-58
2021/10/06 00:20:19;;;;;;;;;1.00;0.00;;;;;;;;5051051;28;51143;-58
2021/10/06 00:22:44;;;;;;;;;1.00;1.00;;;;;;;;5052069;28;53336;-58
2021/10/06 00:25:10;;;;;;;;;0.33;0.33;;;;;;;;5052340;28;53608;-57
2021/10/06 00:27:35;;;;;;;;;1.00;1.00;;;;;;;;5050656;28;51653;-58
2021/10/06 00:30:00;;;;;;;;;1.00;1.00;;;;;;;;5052784;28;51107;-58
2021/10/06 00:32:25;;;;;;;;;1.00;1.00;;;;;;;;5051271;28;52260;-57
2021/10/06 00:34:52;;;;;;;;;1.00;1.00;;;;;;;;5049809;28;51218;-57
2021/10/06 00:37:17;;;;;;;;;2.00;0.00;;;;;;;;5049545;28;51467;-58
2021/10/06 00:39:42;;;;;;;;;0.67;0.00;;;;;;;;5050113;28;51201;-58
2021/10/06 00:42:08;;;;;;;;;2.00;1.00;;;;;;;;5050409;28;51413;-58
2021/10/06 00:44:35;;;;;;;;;2.00;0.67;;;;;;;;5050872;28;51474;-58
2021/10/06 00:47:00;;;;;;;;;1.00;1.00;;;;;;;;5032154;28;51222;-58
2021/10/06 00:49:25;;;;;;;;;0.00;0.00;;;;;;;;5050811;28;51155;-58
2021/10/06 00:51:51;;;;;;;;;2.00;1.00;;;;;;;;5051910;28;53257;-57
2021/10/06 00:54:16;;;;;;;;;0.33;0.00;;;;;;;;5051047;28;51093;-57
2021/10/06 00:56:41;;;;;;;;;1.00;0.00;;;;;;;;5051401;28;51079;-58
2021/10/06 00:59:06;;;;;;;;;1.00;1.00;;;;;;;;5048909;28;51359;-58
2021/10/06 01:01:32;;;;;;;;;2.00;0.33;;;;;;;;5050715;28;52215;-58
2021/10/06 01:03:57;;;;;;;;;2.00;1.00;;;;;;;;5049842;28;51123;-58
2021/10/06 01:06:22;;;;;;;;;1.00;0.00;;;;;;;;5050094;28;51215;-58
2021/10/06 01:08:47;;;;;;;;;1.00;0.00;;;;;;;;5049862;28;53265;-58
2021/10/06 01:11:13;;;;;;;;;1.00;0.00;;;;;;;;5048312;28;53548;-57
2021/10/06 01:13:38;;;;;;;;;0.00;0.00;;;;;;;;5049949;28;51199;-58
2021/10/06 01:16:04;;;;;;;;;1.33;0.00;;;;;;;;5053028;28;53421;-57
2021/10/06 01:18:30;;;;;;;;;3.33;1.00;;;;;;;;5048323;28;51239;-58
2021/10/06 01:20:55;;;;;;;;;1.33;1.00;;;;;;;;5048323;28;53390;-58
2021/10/06 01:23:20;;;;;;;;;1.00;0.67;;;;;;;;5051324;28;51175;-58
2021/10/06 01:25:45;;;;;;;;;2.00;0.00;;;;;;;;5050259;28;51350;-57
2021/10/06 01:28:11;;;;;;;;;1.67;1.00;;;;;;;;5049609;28;51192;-57
2021/10/06 01:30:36;;;;;;;;;1.00;1.00;;;;;;;;5049220;28;52221;-58
2021/10/06 01:33:01;;;;;;;;;1.00;0.00;;;;;;;;5049811;28;51182;-58
2021/10/06 01:35:26;;;;;;;;;2.33;1.00;;;;;;;;5050139;28;53084;-58
2021/10/06 01:37:52;;;;;;;;;1.00;1.00;;;;;;;;5048797;28;51088;-58
2021/10/06 01:40:22;;;;;;;;;0.00;0.00;;;;;;;;5051467;28;52665;-58
2021/10/06 01:42:48;;;;;;;;;1.00;1.00;;;;;;;;5050425;28;51586;-57
2021/10/06 01:45:15;;;;;;;;;2.67;1.00;;;;;;;;5033021;28;51360;-57
2021/10/06 01:47:40;;;;;;;;;1.00;1.00;;;;;;;;5048229;28;53426;-57
2021/10/06 01:50:05;;;;;;;;;0.33;0.00;;;;;;;;5050151;28;51913;-57
2021/10/06 01:52:30;;;;;;;;;0.33;0.33;;;;;;;;5049021;28;51210;-57
2021/10/06 01:54:56;;;;;;;;;0.00;0.00;;;;;;;;5049412;28;52154;-58
2021/10/06 01:57:21;;;;;;;;;1.00;0.33;;;;;;;;5044900;28;51408;-58
2021/10/06 01:59:47;;;;;;;;;1.00;0.00;;;;;;;;5045866;28;53946;-57
2021/10/06 02:02:12;;;;;;;;;1.67;1.33;;;;;;;;5049639;28;51374;-57
2021/10/06 02:04:37;;;;;;;;;0.00;0.00;;;;;;;;5050114;28;51250;-58
2021/10/06 02:07:03;;;;;;;;;2.33;1.33;;;;;;;;5047520;28;51413;-57
2021/10/06 02:09:28;;;;;;;;;0.67;0.67;;;;;;;;5049934;28;51309;-57
2021/10/06 02:11:53;;;;;;;;;1.00;0.00;;;;;;;;5030431;28;53214;-57
2021/10/06 02:14:19;;;;;;;;;1.67;1.00;;;;;;;;5050371;28;51095;-58
2021/10/06 02:16:44;;;;;;;;;2.00;1.00;;;;;;;;5030942;28;51405;-58
2021/10/06 02:19:09;;;;;;;;;0.00;0.00;;;;;;;;5030118;28;51935;-58
2021/10/06 02:21:35;;;;;;;;;0.00;0.00;;;;;;;;5048380;28;51369;-57
2021/10/06 02:24:00;;;;;;;;;0.33;0.00;;;;;;;;5049775;28;51053;-58
2021/10/06 02:26:25;;;;;;;;;1.67;1.00;;;;;;;;5031420;28;51391;-58
2021/10/06 02:28:51;;;;;;;;;0.00;0.00;;;;;;;;5048963;28;53251;-58
2021/10/06 02:31:16;;;;;;;;;0.00;0.00;;;;;;;;5050388;28;51256;-59
2021/10/06 02:33:41;;;;;;;;;0.33;0.00;;;;;;;;5049178;28;51230;-58
2021/10/06 02:36:06;;;;;;;;;1.00;1.00;;;;;;;;5049037;28;51206;-59
2021/10/06 02:38:31;;;;;;;;;2.67;1.00;;;;;;;;5046747;28;53713;-58
2021/10/06 02:40:57;;;;;;;;;1.00;0.00;;;;;;;;5049652;28;51097;-57
2021/10/06 02:43:22;;;;;;;;;2.00;1.00;;;;;;;;5048701;28;53102;-57
2021/10/06 02:45:47;;;;;;;;;1.00;0.00;;;;;;;;5031565;28;53216;-58
2021/10/06 02:48:12;;;;;;;;;0.67;0.00;;;;;;;;5046703;28;51147;-58
2021/10/06 02:50:38;;;;;;;;;1.00;1.00;;;;;;;;5049446;28;51383;-57
2021/10/06 02:53:03;;;;;;;;;0.00;0.00;;;;;;;;5050090;28;53373;-57
2021/10/06 02:55:28;;;;;;;;;0.00;0.00;;;;;;;;5048192;28;53368;-58
2021/10/06 02:57:54;;;;;;;;;1.00;1.00;;;;;;;;5048542;28;52914;-58
2021/10/06 03:00:19;;;;;;;;;0.00;0.00;;;;;;;;5048983;28;51198;-57
2021/10/06 03:02:44;;;;;;;;;0.67;0.00;;;;;;;;5049467;28;53126;-58
2021/10/06 03:05:10;;;;;;;;;1.00;1.00;;;;;;;;5048557;28;51135;-58
2021/10/06 03:07:36;;;;;;;;;0.00;0.00;;;;;;;;5046064;28;52067;-57
2021/10/06 03:10:01;;;;;;;;;0.00;0.00;;;;;;;;5049765;28;51214;-58
2021/10/06 03:12:26;;;;;;;;;0.00;0.00;;;;;;;;5049265;28;51175;-58
2021/10/06 03:14:51;;;;;;;;;2.00;0.67;;;;;;;;5049418;28;51152;-58
2021/10/06 03:17:17;;;;;;;;;0.00;0.00;;;;;;;;5046737;28;51154;-57
2021/10/06 03:19:42;;;;;;;;;0.00;0.00;;;;;;;;5048429;28;53309;-57
2021/10/06 03:22:07;;;;;;;;;0.00;0.00;;;;;;;;5048492;28;53269;-58
2021/10/06 03:24:32;;;;;;;;;4.00;1.00;;;;;;;;5049430;28;53444;-58
2021/10/06 03:26:57;;;;;;;;;0.33;0.33;;;;;;;;5047940;28;53453;-58
2021/10/06 03:29:23;;;;;;;;;1.00;1.00;;;;;;;;5047971;28;51124;-58
2021/10/06 03:31:48;;;;;;;;;1.00;1.00;;;;;;;;5047030;28;53338;-57
2021/10/06 03:34:13;;;;;;;;;1.00;0.00;;;;;;;;5048323;28;51390;-58
2021/10/06 03:36:38;;;;;;;;;0.00;0.00;;;;;;;;5050377;28;51168;-58
2021/10/06 03:39:04;;;;;;;;;0.00;0.00;;;;;;;;5045611;28;53001;-58
2021/10/06 03:41:29;;;;;;;;;1.00;0.00;;;;;;;;5048939;28;51056;-58
2021/10/06 03:43:54;;;;;;;;;0.67;0.00;;;;;;;;5052523;28;51385;-58
2021/10/06 03:46:19;;;;;;;;;0.67;0.00;;;;;;;;5053058;28;51765;-58
2021/10/06 03:48:45;;;;;;;;;0.00;0.00;;;;;;;;5050972;28;51180;-58
2021/10/06 03:51:10;;;;;;;;;2.67;2.00;;;;;;;;5051436;28;51128;-58
2021/10/06 03:53:36;;;;;;;;;0.00;0.00;;;;;;;;5050941;28;51336;-58
2021/10/06 03:56:01;;;;;;;;;0.00;0.00;;;;;;;;5051438;28;52046;-57
2021/10/06 03:58:26;;;;;;;;;0.00;0.00;;;;;;;;5049441;28;51266;-58
2021/10/06 04:00:51;;;;;;;;;1.00;1.00;;;;;;;;5051268;28;51215;-59
2021/10/06 04:03:16;;;;;;;;;0.67;0.00;;;;;;;;5048731;28;51276;-58
2021/10/06 04:05:42;;;;;;;;;0.00;0.00;;;;;;;;5050402;28;52162;-58
2021/10/06 04:08:07;;;;;;;;;0.00;0.00;;;;;;;;5049779;28;51230;-58
2021/10/06 04:10:33;;;;;;;;;0.00;0.00;;;;;;;;5052446;28;51282;-58
2021/10/06 04:12:58;;;;;;;;;1.00;1.00;;;;;;;;5052202;28;51473;-58
2021/10/06 04:15:23;;;;;;;;;1.00;1.00;;;;;;;;5033438;28;51943;-58
2021/10/06 04:17:48;;;;;;;;;2.67;1.00;;;;;;;;5050833;28;51348;-58
2021/10/06 04:20:14;;;;;;;;;2.00;1.00;;;;;;;;5051424;28;51311;-58
2021/10/06 04:22:39;;;;;;;;;1.00;0.67;;;;;;;;5050841;28;51120;-57
2021/10/06 04:25:06;;;;;;;;;2.33;0.00;;;;;;;;5051014;28;52062;-58
2021/10/06 04:27:31;;;;;;;;;1.33;1.00;;;;;;;;5049266;28;51392;-58
2021/10/06 04:29:57;;;;;;;;;0.33;0.33;;;;;;;;5050464;28;51495;-58
2021/10/06 04:32:22;;;;;;;;;1.00;0.00;;;;;;;;5052414;28;51201;-58
2021/10/06 04:34:47;;;;;;;;;0.33;0.00;;;;;;;;5051414;28;52109;-58
2021/10/06 04:37:12;;;;;;;;;0.00;0.00;;;;;;;;5048585;28;51103;-58
2021/10/06 04:39:39;;;;;;;;;1.00;0.00;;;;;;;;5049136;28;51409;-58
2021/10/06 04:42:04;;;;;;;;;1.00;0.67;;;;;;;;5050758;28;51235;-58
2021/10/06 04:44:30;;;;;;;;;2.00;1.00;;;;;;;;5050145;28;51355;-57
2021/10/06 04:46:55;;;;;;;;;0.00;0.00;;;;;;;;5031193;28;51203;-58
2021/10/06 04:49:20;;;;;;;;;3.00;1.00;;;;;;;;5049651;28;51361;-57
2021/10/06 04:51:45;;;;;;;;;0.00;0.00;;;;;;;;5051559;28;51418;-58
2021/10/06 04:54:11;;;;;;;;;1.33;1.33;;;;;;;;5031329;28;52300;-58
2021/10/06 04:56:36;;;;;;;;;0.00;0.00;;;;;;;;5048970;28;51195;-58
2021/10/06 04:59:01;;;;;;;;;2.00;1.00;;;;;;;;5049941;28;51104;-57
2021/10/06 05:01:26;;;;;;;;;1.00;1.00;;;;;;;;5050820;28;52981;-57
2021/10/06 05:03:52;;;;;;;;;1.00;0.00;;;;;;;;5049517;28;52842;-58
2021/10/06 05:06:17;;;;;;;;;0.67;0.67;;;;;;;;5050176;28;51165;-57
2021/10/06 05:08:43;;;;;;;;;0.00;0.00;;;;;;;;5049815;28;53137;-58
2021/10/06 05:11:08;;;;;;;;;1.33;0.67;;;;;;;;5050765;28;51210;-58
2021/10/06 05:13:33;;;;;;;;;2.00;1.00;;;;;;;;5046951;28;53019;-57
2021/10/06 05:15:59;;;;;;;;;1.00;1.00;;;;;;;;5050477;28;51165;-57
2021/10/06 05:18:24;;;;;;;;;0.00;0.00;;;;;;;;5050764;28;53337;-57
2021/10/06 05:20:49;;;;;;;;;0.00;0.00;;;;;;;;5050215;28;53456;-58
2021/10/06 05:23:14;;;;;;;;;1.25;1.25;;;;;;;;5048572;28;51414;-58
2021/10/06 05:25:40;;;;;;;;;1.00;1.00;;;;;;;;5049905;28;53462;-57
2021/10/06 05:28:05;;;;;;;;;2.00;2.00;;;;;;;;5050441;28;51193;-58
2021/10/06 05:30:30;;;;;;;;;0.67;0.00;;;;;;;;5050298;28;51133;-58
2021/10/06 05:32:55;;;;;;;;;2.00;0.00;;;;;;;;5049285;28;52140;-58
2021/10/06 05:35:20;;;;;;;;;1.00;0.67;;;;;;;;5048876;28;53448;-58
2021/10/06 05:37:46;;;;;;;;;2.00;1.00;;;;;;;;5032373;28;51112;-58
2021/10/06 05:40:11;;;;;;;;;1.00;1.00;;;;;;;;5050258;28;51527;-58
2021/10/06 05:42:36;;;;;;;;;1.00;0.67;;;;;;;;5048868;28;51108;-58
2021/10/06 05:45:02;;;;;;;;;1.00;1.00;;;;;;;;5031120;28;51187;-58
2021/10/06 05:47:27;;;;;;;;;2.00;1.75;;;;;;;;5051053;28;53403;-59
2021/10/06 05:49:54;;;;;;;;;0.33;0.33;;;;;;;;5050943;28;51301;-58
2021/10/06 05:52:20;;;;;;;;;1.00;1.00;;;;;;;;5028267;28;53358;-58
2021/10/06 05:54:45;;;;;;;;;0.00;0.00;;;;;;;;5048955;28;51578;-58
2021/10/06 05:57:10;;;;;;;;;1.00;1.00;;;;;;;;5045829;28;53290;-58
2021/10/06 05:59:35;;;;;;;;;2.00;2.00;;;;;;;;5049022;28;51195;-59
2021/10/06 06:02:01;;;;;;;;;2.00;1.00;;;;;;;;5046327;28;52163;-57
2021/10/06 06:04:27;;;;;;;;;4.00;1.33;;;;;;;;5046927;28;51164;-57
2021/10/06 06:06:52;;;;;;;;;1.00;1.00;;;;;;;;5046317;28;51355;-57
2021/10/06 06:09:20;;;;;;;;;3.25;3.00;;;;;;;;5041636;28;51223;-58
2021/10/06 06:11:46;;;;;;;;;1.00;1.00;;;;;;;;5047938;28;51820;-58
2021/10/06 06:14:11;;;;;;;;;1.00;1.00;;;;;;;;5049370;28;51209;-58
2021/10/06 06:16:36;;;;;;;;;2.00;1.00;;;;;;;;5048007;28;51101;-58
2021/10/06 06:19:01;;;;;;;;;1.33;1.00;;;;;;;;5048843;27;51215;-59
2021/10/06 06:21:27;;;;;;;;;4.00;3.00;;;;;;;;5046370;28;51216;-58
2021/10/06 06:23:52;;;;;;;;;2.00;2.00;;;;;;;;5049615;28;51448;-57
2021/10/06 06:26:17;;;;;;;;;3.00;2.00;;;;;;;;5047336;28;51151;-57
2021/10/06 06:28:43;;;;;;;;;1.75;1.00;;;;;;;;5047767;28;51297;-58
2021/10/06 06:31:08;;;;;;;;;2.00;2.00;;;;;;;;5046509;28;51674;-58
2021/10/06 06:33:34;;;;;;;;;4.00;4.00;;;;;;;;5028136;28;51293;-58
2021/10/06 06:36:04;;;;;;;;;2.00;1.67;;;;;;;;5047568;28;51287;-58
2021/10/06 06:38:29;;;;;;;;;4.00;4.00;;;;;;;;5047257;28;51259;-59
2021/10/06 06:40:54;;;;;;;;;1.00;1.00;;;;;;;;5045691;28;52825;-59
2021/10/06 06:43:20;;;;;;;;;2.50;2.00;;;;;;;;5047880;28;51229;-59
2021/10/06 06:45:45;;;;;;;;;4.00;4.00;;;;;;;;5049403;28;51235;-59
2021/10/06 06:48:10;;;;;;;;;4.00;4.00;;;;;;;;5047008;28;53064;-59
2021/10/06 06:50:35;;;;;;;;;1.75;1.50;;;;;;;;5047219;28;51182;-58
2021/10/06 06:53:01;;;;;;;;;1.67;1.67;;;;;;;;5048362;28;51321;-59
2021/10/06 06:55:26;;;;;;;;;1.00;1.00;;;;;;;;5048924;28;51265;-58
2021/10/06 06:57:52;;;;;;;;;1.00;1.00;;;;;;;;5045616;28;53443;-58
2021/10/06 07:00:17;;;;;;;;;2.67;2.00;;;;;;;;5048713;28;51775;-58
2021/10/06 07:02:42;;;;;;;;;2.00;2.00;;;;;;;;5046029;28;51444;-58
2021/10/06 07:05:07;;;;;;;;;4.75;4.00;;;;;;;;5046850;28;51136;-58
2021/10/06 07:07:33;;;;;;;;;4.00;3.00;;;;;;;;5047701;28;51457;-58
2021/10/06 07:09:58;;;;;;;;;4.00;3.00;;;;;;;;5046145;28;53097;-58
2021/10/06 07:12:23;;;;;;;;;2.75;2.75;;;;;;;;5048298;28;51321;-58
2021/10/06 07:14:49;;;;;;;;;2.00;2.00;;;;;;;;5047916;28;51088;-58
2021/10/06 07:17:14;;;;;;;;;4.00;3.33;;;;;;;;5047888;28;51302;-58
2021/10/06 07:19:40;;;;;;;;;6.75;5.75;;;;;;;;5048693;28;51997;-58
2021/10/06 07:22:06;;;;;;;;;3.00;3.00;;;;;;;;5050092;28;51378;-58
2021/10/06 07:24:31;;;;;;;;;4.00;3.67;;;;;;;;5050559;28;51251;-59
2021/10/06 07:26:57;;;;;;;;;5.33;5.00;;;;;;;;5052133;28;51301;-58
2021/10/06 07:29:22;;;;;;;;;2.00;2.00;;;;;;;;5316536;22;51784;-76
2021/10/06 07:31:47;;;;;;;;;4.00;3.00;;;;;;;;5024355;28;51343;-76
2021/10/06 07:34:13;;;;;;;;;3.00;3.00;;;;;;;;5020283;28;51182;-76
2021/10/06 07:36:38;;;;;;;;;2.00;1.00;;;;;;;;5020589;28;51073;-76
2021/10/06 07:39:04;;;;;;;;;4.00;3.33;;;;;;;;5019182;28;52293;-77
2021/10/06 07:41:29;;;;;;;;;3.00;2.00;;;;;;;;5018406;28;51207;-76
2021/10/06 07:43:55;;;;;;;;;2.00;2.00;;;;;;;;5020173;28;51680;-76
2021/10/06 07:46:20;;;;;;;;;2.00;2.00;;;;;;;;5020762;28;51347;-77
2021/10/06 07:48:45;;;;;;;;;2.00;2.00;;;;;;;;5018140;28;52575;-76
2021/10/06 07:51:10;;;;;;;;;3.33;3.00;;;;;;;;5018206;28;51340;-77
2021/10/06 07:53:36;;;;;;;;;1.67;1.67;;;;;;;;5019605;28;51496;-77
2021/10/06 07:56:01;;;;;;;;;2.33;2.00;;;;;;;;5018846;28;51230;-76
2021/10/06 07:58:26;;;;;;;;;3.00;3.00;;;;;;;;5019277;28;51097;-76
2021/10/06 08:00:51;;;;;;;;;2.33;2.00;;;;;;;;5018706;28;51236;-75
2021/10/06 08:03:17;;;;;;;;;3.67;3.67;;;;;;;;5019441;28;51132;-75
2021/10/06 08:05:42;;;;;;;;;4.00;3.67;;;;;;;;5019589;28;51302;-76
2021/10/06 08:08:07;;;;;;;;;2.00;2.00;;;;;;;;5018346;28;53304;-75
2021/10/06 08:10:32;;;;;;;;;1.00;1.00;;;;;;;;5018682;28;53038;-76
2021/10/06 08:13:03;;;;;;;;;1.00;1.00;;;;;;;;5013007;28;51163;-76
2021/10/06 08:15:28;;;;;;;;;0.67;0.67;;;;;;;;5020590;28;51435;-76
2021/10/06 08:17:54;;;;;;;;;2.67;2.33;;;;;;;;5019388;28;54305;-74
2021/10/06 08:20:19;;;;;;;;;2.00;2.00;;;;;;;;5017874;28;51168;-75
2021/10/06 08:22:44;;;;;;;;;2.00;2.00;;;;;;;;5019416;28;53498;-75
2021/10/06 08:25:09;;;;;;;;;1.00;1.00;;;;;;;;5018840;28;51365;-73
2021/10/06 08:27:35;;;;;;;;;1.00;1.00;;;;;;;;5018522;28;51601;-76
2021/10/06 08:30:00;;;;;;;;;2.00;1.00;;;;;;;;5018796;28;51111;-76
2021/10/06 08:32:25;;;;;;;;;1.67;0.00;;;;;;;;5018427;28;52796;-76
2021/10/06 08:34:50;;;;;;;;;2.67;2.67;;;;;;;;5020068;28;51039;-75
2021/10/06 08:37:16;;;;;;;;;1.00;1.00;;;;;;;;5017981;28;51801;-75
2021/10/06 08:39:41;;;;;;;;;1.00;1.00;;;;;;;;5018129;28;52926;-75
2021/10/06 08:42:09;;;;;;;;;2.00;1.00;;;;;;;;5018156;28;51110;-74
2021/10/06 08:44:35;;;;;;;;;2.00;1.00;;;;;;;;5002816;28;53096;-74
2021/10/06 08:47:00;;;;;;;;;1.67;0.67;;;;;;;;5017078;28;51359;-73
2021/10/06 08:49:27;;;;;;;;;2.00;1.00;;;;;;;;5016908;28;51135;-76
2021/10/06 08:51:52;;;;;;;;;0.00;0.00;;;;;;;;5018168;28;53259;-75
2021/10/06 08:54:18;;;;;;;;;4.00;3.00;;;;;;;;4996239;28;51239;-75
2021/10/06 08:56:46;;;;;;;;;1.00;1.00;;;;;;;;5018274;28;51344;-73
2021/10/06 08:59:12;;;;;;;;;3.33;2.00;;;;;;;;5018087;28;51402;-73
2021/10/06 09:01:42;;;;;;;;;2.00;2.00;;;;;;;;5019431;28;51263;-74
2021/10/06 09:04:07;;;;;;;;;6.00;5.33;;;;;;;;5018385;28;51090;-74
2021/10/06 09:06:32;;;;;;;;;1.67;0.33;;;;;;;;5017029;28;51347;-72
2021/10/06 09:08:58;;;;;;;;;1.00;1.00;;;;;;;;5019456;28;51123;-74
2021/10/06 09:11:30;;;;;;;;;7.33;4.67;;;;;;;;5018624;28;51459;-74
2021/10/06 09:13:55;;;;;;;;;11.67;10.67;;;;;;;;5017847;28;51401;-74
2021/10/06 09:16:22;;;;;;;;;2.00;1.33;;;;;;;;5016501;28;51301;-74
2021/10/06 09:18:48;;;;;;;;;2.00;1.00;;;;;;;;4993072;28;53511;-74
2021/10/06 09:21:13;;;;;;;;;1.00;0.00;;;;;;;;5018161;28;51481;-74
2021/10/06 09:23:41;;;;;;;;;1.00;1.00;;;;;;;;5018497;28;53510;-73
2021/10/06 09:26:08;;;;;;;;;5.00;4.67;;;;;;;;5018072;28;52282;-72
2021/10/06 09:28:38;;;;;;;;;4.67;4.67;;;;;;;;5018236;28;51134;-72
2021/10/06 09:31:03;;;;;;;;;0.00;0.00;;;;;;;;5017592;28;51306;-73
2021/10/06 09:33:46;;;;;;;;;1.00;1.00;;;;;;;;5017526;28;51223;-73
2021/10/06 09:36:16;;;;;;;;;7.33;5.00;;;;;;;;5017313;28;51237;-73
2021/10/06 09:38:43;;;;;;;;;1.00;0.00;;;;;;;;5018116;28;53444;-73
2021/10/06 09:41:27;;;;;;;;;0.00;0.00;;;;;;;;5017161;28;51405;-75
2021/10/06 09:44:12;;;;;;;;;0.00;0.00;;;;;;;;5017392;28;51258;-74
2021/10/06 09:46:47;;;;;;;;;0.67;0.67;;;;;;;;5014975;28;51811;-75
2021/10/06 09:49:18;;;;;;;;;3.00;2.00;;;;;;;;5017125;28;51098;-73
2021/10/06 09:51:44;;;;;;;;;4.33;3.00;;;;;;;;5017634;28;51151;-74
2021/10/06 09:54:09;;;;;;;;;1.00;1.00;;;;;;;;5017012;28;53370;-72
2021/10/06 09:56:39;;;;;;;;;0.00;0.00;;;;;;;;5017912;28;51778;-73
2021/10/06 09:59:05;;;;;;;;;0.67;0.67;;;;;;;;5018476;28;51265;-73
2021/10/06 10:01:34;;;;;;;;;1.67;1.67;;;;;;;;5016872;28;51228;-73
2021/10/06 10:03:59;;;;;;;;;1.00;1.00;;;;;;;;5017206;28;51069;-72
2021/10/06 10:06:25;;;;;;;;;6.00;4.00;;;;;;;;5015793;28;51100;-74
2021/10/06 10:08:50;;;;;;;;;4.00;3.33;;;;;;;;5016852;28;51209;-74
2021/10/06 10:11:16;;;;;;;;;2.67;1.67;;;;;;;;4999345;28;51327;-73
2021/10/06 10:13:41;;;;;;;;;4.33;3.33;;;;;;;;5017685;28;51406;-72
2021/10/06 10:16:07;;;;;;;;;3.00;2.67;;;;;;;;5017185;28;52004;-73
2021/10/06 10:18:32;;;;;;;;;2.67;2.00;;;;;;;;5017066;28;51198;-73
2021/10/06 10:21:00;;;;;;;;;2.00;2.00;;;;;;;;5016994;28;51051;-73
2021/10/06 10:23:25;;;;;;;;;2.00;2.00;;;;;;;;5016861;28;51197;-73
2021/10/06 10:25:50;;;;;;;;;3.00;3.00;;;;;;;;5015566;28;52728;-73
2021/10/06 10:28:24;;;;;;;;;4.00;3.00;;;;;;;;5016816;28;53444;-73
2021/10/06 10:30:57;;;;;;;;;6.00;5.00;;;;;;;;5017789;28;51202;-74
2021/10/06 10:33:41;;;;;;;;;3.00;2.00;;;;;;;;5017326;28;53024;-73
2021/10/06 10:36:26;;;;;;;;;2.00;2.00;;;;;;;;5016299;28;53112;-73
2021/10/06 10:38:51;;;;;;;;;2.00;1.00;;;;;;;;5016769;28;51288;-74
2021/10/06 10:41:36;;;;;;;;;4.00;4.00;;;;;;;;5017075;28;53071;-73
2021/10/06 10:44:05;;;;;;;;;3.00;3.00;;;;;;;;5017049;28;53068;-72
2021/10/06 10:46:50;;;;;;;;;6.00;5.33;;;;;;;;5015980;28;52102;-73
2021/10/06 10:49:16;;;;;;;;;3.00;3.00;;;;;;;;5016761;28;51246;-72
2021/10/06 10:51:42;;;;;;;;;5.67;4.00;;;;;;;;5017612;28;53570;-73
2021/10/06 10:54:10;;;;;;;;;4.00;3.00;;;;;;;;5016259;28;51311;-73
2021/10/06 10:56:39;;;;;;;;;4.00;3.00;;;;;;;;5015760;28;51151;-74
2021/10/06 10:59:05;;;;;;;;;3.67;2.67;;;;;;;;5015571;28;51267;-73
2021/10/06 11:01:41;;;;;;;;;2.33;2.33;;;;;;;;5016158;28;51305;-74
2021/10/06 11:04:16;;;;;;;;;2.33;2.33;;;;;;;;5017178;28;51217;-73
2021/10/06 11:06:42;;;;;;;;;3.00;2.33;;;;;;;;5016272;28;52860;-74
2021/10/06 11:09:26;;;;;;;;;2.67;2.00;;;;;;;;5016618;28;51494;-73
2021/10/06 11:11:51;;;;;;;;;2.33;1.00;;;;;;;;5016078;28;51366;-72
2021/10/06 11:14:21;;;;;;;;;3.00;2.67;;;;;;;;5016482;28;51239;-73
2021/10/06 11:17:06;;;;;;;;;2.33;1.67;;;;;;;;5017157;28;52100;-74
2021/10/06 11:19:38;;;;;;;;;3.33;3.33;;;;;;;;5016192;28;51076;-71
2021/10/06 11:22:22;;;;;;;;;3.67;3.67;;;;;;;;5015441;28;51387;-71
2021/10/06 11:24:48;;;;;;;;;4.00;4.00;;;;;;;;5016747;28;51404;-74
2021/10/06 11:27:13;;;;;;;;;5.00;4.33;;;;;;;;5015642;28;51985;-73
2021/10/06 11:29:42;;;;;;;;;1.33;1.33;;;;;;;;5016203;28;51322;-72
2021/10/06 11:32:07;;;;;;;;;4.00;4.00;;;;;;;;5015765;28;51391;-73
2021/10/06 11:34:32;;;;;;;;;3.33;3.33;;;;;;;;5016168;28;51566;-73
2021/10/06 11:36:58;;;;;;;;;4.00;3.33;;;;;;;;5015613;28;53269;-73
2021/10/06 11:39:25;;;;;;;;;49.75;42.25;;;;;;;;5015208;28;51147;-73
2021/10/06 11:41:51;;;;;;;;;8.33;8.33;;;;;;;;5016569;28;51210;-73
2021/10/06 11:44:17;;;;;;;;;5.67;4.00;;;;;;;;5015967;28;51232;-73
2021/10/06 11:46:44;;;;;;;;;2.33;2.00;;;;;;;;5014908;28;52237;-73
2021/10/06 11:49:09;;;;;;;;;2.00;2.00;;;;;;;;5016028;28;51374;-73
2021/10/06 11:51:39;;;;;;;;;4.00;4.00;;;;;;;;5014566;28;51321;-73
2021/10/06 11:54:04;;;;;;;;;2.00;2.00;;;;;;;;5017002;28;51394;-73
2021/10/06 11:56:30;;;;;;;;;3.00;2.00;;;;;;;;5016479;28;51239;-73
2021/10/06 11:59:05;;;;;;;;;4.00;4.00;;;;;;;;5010378;28;51449;-73
2021/10/06 12:01:30;;;;;;;;;4.00;4.00;;;;;;;;5014920;28;51301;-73
2021/10/06 12:03:55;;;;;;;;;2.67;2.00;;;;;;;;5018466;28;51190;-74
2021/10/06 12:06:21;;;;;;;;;2.67;2.67;;;;;;;;5018594;28;51151;-73
2021/10/06 12:08:47;;;;;;;;;3.33;2.67;;;;;;;;5018900;28;51197;-71
2021/10/06 12:11:14;;;;;;;;;2.00;1.00;;;;;;;;5018981;28;53355;-73
2021/10/06 12:13:40;;;;;;;;;3.67;2.00;;;;;;;;5018563;28;52944;-72
2021/10/06 12:16:19;;;;;;;;;4.00;3.67;;;;;;;;5017627;28;53661;-74
2021/10/06 12:18:51;;;;;;;;;2.67;2.67;;;;;;;;5018537;28;51301;-73
2021/10/06 12:21:16;;;;;;;;;3.67;3.00;;;;;;;;5018617;28;51299;-73
2021/10/06 12:23:42;;;;;;;;;3.00;3.00;;;;;;;;5019275;28;51230;-72
2021/10/06 12:26:07;;;;;;;;;1.00;1.00;;;;;;;;5017521;28;51955;-72
2021/10/06 12:28:49;;;;;;;;;5.00;4.00;;;;;;;;5017733;28;52725;-73
2021/10/06 12:31:42;;;;;;;;;3.33;3.33;;;;;;;;5018148;28;51176;-72
2021/10/06 12:34:17;;;;;;;;;5.00;4.33;;;;;;;;5018212;28;53225;-72
2021/10/06 12:37:00;;;;;;;;;3.00;3.00;;;;;;;;5018776;28;51167;-72
2021/10/06 12:39:27;;;;;;;;;3.00;3.00;;;;;;;;5018443;28;51143;-72
2021/10/06 12:41:54;;;;;;;;;4.67;3.67;;;;;;;;5017257;28;51269;-72
2021/10/06 12:44:21;;;;;;;;;2.00;2.00;;;;;;;;5009495;28;53321;-72
2021/10/06 12:46:47;;;;;;;;;1.67;1.67;;;;;;;;5014851;28;51899;-73
2021/10/06 12:49:13;;;;;;;;;6.67;6.67;;;;;;;;5019043;28;51152;-72
2021/10/06 12:51:39;;;;;;;;;2.00;2.00;;;;;;;;5017552;28;51545;-72
2021/10/06 12:54:26;;;;;;;;;4.67;4.00;;;;;;;;5018207;28;51222;-73
2021/10/06 12:56:59;;;;;;;;;2.00;2.00;;;;;;;;5017005;28;52277;-71
2021/10/06 12:59:38;;;;;;;;;4.33;3.00;;;;;;;;5018399;28;53145;-72
2021/10/06 13:02:07;;;;;;;;;2.00;1.33;;;;;;;;5018121;28;51195;-73
2021/10/06 13:04:32;;;;;;;;;3.67;3.00;;;;;;;;5018022;28;51255;-72
2021/10/06 13:06:57;;;;;;;;;1.33;1.00;;;;;;;;5016439;28;51792;-72
2021/10/06 13:09:22;;;;;;;;;4.00;4.00;;;;;;;;5016555;28;51299;-71
2021/10/06 13:11:49;;;;;;;;;2.67;2.00;;;;;;;;5018467;28;51177;-73
2021/10/06 13:14:14;;;;;;;;;2.00;2.00;;;;;;;;5017326;28;51375;-70
2021/10/06 13:16:41;;;;;;;;;1.33;1.33;;;;;;;;5016536;28;52219;-73
2021/10/06 13:19:06;;;;;;;;;3.00;3.00;;;;;;;;5018324;28;51244;-72
2021/10/06 13:21:32;;;;;;;;;4.00;2.67;;;;;;;;5018813;28;51602;-72
2021/10/06 13:23:58;;;;;;;;;2.00;2.00;;;;;;;;5017383;28;51444;-71
2021/10/06 13:26:24;;;;;;;;;2.00;1.00;;;;;;;;5015979;28;51443;-71
2021/10/06 13:28:49;;;;;;;;;3.67;3.33;;;;;;;;5017367;28;51259;-71
2021/10/06 13:31:15;;;;;;;;;2.33;2.33;;;;;;;;5016224;28;51466;-72
2021/10/06 13:33:41;;;;;;;;;2.00;2.00;;;;;;;;5016577;28;51074;-73
2021/10/06 13:36:13;;;;;;;;;2.67;1.00;;;;;;;;5017973;28;51101;-73
2021/10/06 13:38:39;;;;;;;;;1.00;1.00;;;;;;;;5017799;28;51164;-71
2021/10/06 13:41:04;;;;;;;;;3.00;2.00;;;;;;;;5017533;28;51208;-73
2021/10/06 13:43:31;;;;;;;;;1.00;1.00;;;;;;;;5016410;28;51127;-72
2021/10/06 13:45:56;;;;;;;;;1.33;1.33;;;;;;;;5017740;28;52527;-71
2021/10/06 13:48:21;;;;;;;;;1.00;1.00;;;;;;;;5016824;28;51118;-73
2021/10/06 13:50:46;;;;;;;;;0.67;0.67;;;;;;;;5016559;28;51609;-72
2021/10/06 13:53:12;;;;;;;;;1.33;1.00;;;;;;;;5017752;28;53328;-71
2021/10/06 13:55:37;;;;;;;;;0.33;0.00;;;;;;;;5017187;28;51183;-71
2021/10/06 13:58:03;;;;;;;;;0.67;0.67;;;;;;;;5016299;28;52652;-71
2021/10/06 14:00:31;;;;;;;;;1.33;0.67;;;;;;;;5017165;28;53314;-72
2021/10/06 14:02:57;;;;;;;;;1.33;0.67;;;;;;;;5016791;28;51477;-70
2021/10/06 14:05:22;;;;;;;;;1.67;0.67;;;;;;;;5015313;28;52153;-72
2021/10/06 14:07:47;;;;;;;;;1.67;1.67;;;;;;;;5000148;28;51227;-72
2021/10/06 14:10:13;;;;;;;;;2.67;1.67;;;;;;;;5017156;28;51189;-72
2021/10/06 14:12:39;;;;;;;;;2.67;1.67;;;;;;;;5017417;28;51193;-71
2021/10/06 14:15:05;;;;;;;;;1.00;1.00;;;;;;;;5015994;28;51257;-72
2021/10/06 14:17:30;;;;;;;;;0.67;0.67;;;;;;;;5016338;28;51160;-71
2021/10/06 14:19:55;;;;;;;;;2.33;1.67;;;;;;;;5015458;28;51179;-72
2021/10/06 14:22:20;;;;;;;;;1.67;1.67;;;;;;;;5017650;28;51185;-72
2021/10/06 14:24:46;;;;;;;;;2.67;1.67;;;;;;;;5000570;28;52824;-74
2021/10/06 14:27:11;;;;;;;;;1.67;1.33;;;;;;;;5016189;28;51160;-71
2021/10/06 14:29:36;;;;;;;;;1.33;1.33;;;;;;;;5016873;28;51250;-72
2021/10/06 14:32:02;;;;;;;;;2.67;1.67;;;;;;;;5017221;28;51060;-73
2021/10/06 14:34:27;;;;;;;;;2.33;1.00;;;;;;;;4992007;28;51847;-71
2021/10/06 14:36:52;;;;;;;;;2.00;1.67;;;;;;;;5017341;28;51144;-73
2021/10/06 14:39:17;;;;;;;;;1.67;1.67;;;;;;;;5017286;28;51203;-73